sensor_id;sensor_type;location;lat;lon;timestamp;temperature;humidity
25250;DHT22;13201;51.148;13.738;2024-01-15T00:02:15;2.20;99.90
25250;DHT22;13201;51.148;13.738;2024-01-15T00:04:41;2.20;99.90
25250;DHT22;13201;51.148;13.738;2024-01-15T00:07:07;2.30;99.90
25250;DHT22;13201;51.148;13.738;2024-01-15T00:09:33;2.30;99.90
25250;DHT22;13201;51.148;13.738;2024-01-15T00:11:59;2.20;99.90
25250;DHT22;13201;51.148;13.738;2024-01-15T00:14:26;2.30;99.90
25250;DHT22;13201;51.148;13.738;2024-01-15T00:16:52;2.30;99.90
25250;DHT22;13201;51.148;13.738;2024-01-15T00:19:20;2.20;99.90
25250;DHT22;13201;51.148;13.738;2024-01-15T00:21:46;2.20;99.90
25250;DHT22;13201;51.148;13.738;2024-01-15T00:24:12;2.20;99.90
25250;DHT22;13201;51.148;13.738;2024-01-15T00:26:38;2.10;99.90
25250;DHT22;13201;51.148;13.738;2024-01-15T00:29:03;2.20;99.90
25250;DHT22;13201;51.148;13.738;2024-01-15T00:31:30;2.20;99.90
25250;DHT22;13201;51.148;13.738;2024-01-15T00:33:56;2.20;99.90
25250;DHT22;13201;51.148;13.738;2024-01-15T00:36:22;2.20;99.90
25250;DHT22;13201;51.148;13.738;2024-01-15T00:38:48;2.10;99.90
25250;DHT22;13201;51.148;13.738;2024-01-15T00:41:14;2.20;99.90
25250;DHT22;13201;51.148;13.738;2024-01-15T00:43:40;2.20;99.90
25250;DHT22;13201;51.148;13.738;2024-01-15T00:46:06;2.20;99.90
25250;DHT22;13201;51.148;13.738;2024-01-15T00:48:32;2.20;99.90
25250;DHT22;13201;51.148;13.738;2024-01-15T00:50:58;2.20;99.90
25250;DHT22;13201;51.148;13.738;2024-01-15T00:53:23;2.10;99.90
25250;DHT22;13201;51.148;13.738;2024-01-15T00:55:49;2.10;99.90
25250;DHT22;13201;51.148;13.738;2024-01-15T00:58:15;2.10;99.90
25250;DHT22;13201;51.148;13.738;2024-01-15T01:00:41;2.20;99.90
25250;DHT22;13201;51.148;13.738;2024-01-15T01:28:08;1.40;99.90
25250;DHT22;13201;51.148;13.738;2024-01-15T01:30:34;1.40;99.90
25250;DHT22;13201;51.148;13.738;2024-01-15T01:33:00;1.40;99.90
25250;DHT22;13201;51.148;13.738;2024-01-15T01:35:26;1.50;99.90
25250;DHT22;13201;51.148;13.738;2024-01-15T01:37:51;1.60;99.90
25250;DHT22;13201;51.148;13.738;2024-01-15T01:40:17;1.60;99.90
25250;DHT22;13201;51.148;13.738;2024-01-15T01:42:43;1.60;99.90
25250;DHT22;13201;51.148;13.738;2024-01-15T01:45:09;1.70;99.90
25250;DHT22;13201;51.148;13.738;2024-01-15T01:47:34;1.70;99.90
25250;DHT22;13201;51.148;13.738;2024-01-15T01:50:02;1.70;99.90
25250;DHT22;13201;51.148;13.738;2024-01-15T01:52:28;1.70;99.90
25250;DHT22;13201;51.148;13.738;2024-01-15T01:54:54;1.70;99.90
25250;DHT22;13201;51.148;13.738;2024-01-15T01:57:20;1.70;99.90
25250;DHT22;13201;51.148;13.738;2024-01-15T01:59:46;1.70;99.90
25250;DHT22;13201;51.148;13.738;2024-01-15T02:02:12;1.70;99.90
25250;DHT22;13201;51.148;13.738;2024-01-15T02:04:39;1.70;99.90
25250;DHT22;13201;51.148;13.738;2024-01-15T02:07:05;1.70;99.90
25250;DHT22;13201;51.148;13.738;2024-01-15T02:09:31;1.70;99.90
25250;DHT22;13201;51.148;13.738;2024-01-15T02:11:57;1.80;99.90
25250;DHT22;13201;51.148;13.738;2024-01-15T02:14:23;1.70;99.90
25250;DHT22;13201;51.148;13.738;2024-01-15T02:16:49;1.70;99.90
25250;DHT22;13201;51.148;13.738;2024-01-15T02:19:15;1.80;99.90
25250;DHT22;13201;51.148;13.738;2024-01-15T02:21:42;1.80;99.90
25250;DHT22;13201;51.148;13.738;2024-01-15T02:24:08;1.80;99.90
25250;DHT22;13201;51.148;13.738;2024-01-15T02:26:34;1.80;99.90
25250;DHT22;13201;51.148;13.738;2024-01-15T02:29:01;1.80;99.90
25250;DHT22;13201;51.148;13.738;2024-01-15T02:31:27;1.80;99.90
25250;DHT22;13201;51.148;13.738;2024-01-15T02:33:53;1.80;99.90
25250;DHT22;13201;51.148;13.738;2024-01-15T02:36:19;1.70;99.90
25250;DHT22;13201;51.148;13.738;2024-01-15T02:38:44;1.70;99.90
25250;DHT22;13201;51.148;13.738;2024-01-15T02:41:10;1.70;99.90
25250;DHT22;13201;51.148;13.738;2024-01-15T02:43:36;1.70;99.90
25250;DHT22;13201;51.148;13.738;2024-01-15T02:46:01;1.60;99.90
25250;DHT22;13201;51.148;13.738;2024-01-15T02:48:27;1.60;99.90
25250;DHT22;13201;51.148;13.738;2024-01-15T02:50:52;1.60;99.90
25250;DHT22;13201;51.148;13.738;2024-01-15T02:53:18;1.60;99.90
25250;DHT22;13201;51.148;13.738;2024-01-15T02:55:44;1.70;99.90
25250;DHT22;13201;51.148;13.738;2024-01-15T02:58:09;1.70;99.90
25250;DHT22;13201;51.148;13.738;2024-01-15T03:00:35;1.70;99.90
25250;DHT22;13201;51.148;13.738;2024-01-15T03:03:01;1.70;99.90
25250;DHT22;13201;51.148;13.738;2024-01-15T03:05:26;1.70;99.90
25250;DHT22;13201;51.148;13.738;2024-01-15T03:07:52;1.70;99.90
25250;DHT22;13201;51.148;13.738;2024-01-15T03:10:18;1.70;99.90
25250;DHT22;13201;51.148;13.738;2024-01-15T03:12:43;1.70;99.90
25250;DHT22;13201;51.148;13.738;2024-01-15T03:15:09;1.70;99.90
25250;DHT22;13201;51.148;13.738;2024-01-15T03:17:35;1.70;99.90
25250;DHT22;13201;51.148;13.738;2024-01-15T03:20:01;1.80;99.90
25250;DHT22;13201;51.148;13.738;2024-01-15T03:22:28;1.80;99.90
25250;DHT22;13201;51.148;13.738;2024-01-15T03:24:53;1.80;99.90
25250;DHT22;13201;51.148;13.738;2024-01-15T03:27:19;1.70;99.90
25250;DHT22;13201;51.148;13.738;2024-01-15T03:29:45;1.80;99.90
25250;DHT22;13201;51.148;13.738;2024-01-15T03:32:10;1.80;99.90
25250;DHT22;13201;51.148;13.738;2024-01-15T03:34:36;1.80;99.90
25250;DHT22;13201;51.148;13.738;2024-01-15T03:37:02;1.80;99.90
25250;DHT22;13201;51.148;13.738;2024-01-15T03:39:28;1.70;99.90
25250;DHT22;13201;51.148;13.738;2024-01-15T03:41:53;1.80;99.90
25250;DHT22;13201;51.148;13.738;2024-01-15T03:44:19;1.70;99.90
25250;DHT22;13201;51.148;13.738;2024-01-15T03:46:45;1.70;99.90
25250;DHT22;13201;51.148;13.738;2024-01-15T03:49:10;1.60;99.90
25250;DHT22;13201;51.148;13.738;2024-01-15T03:51:37;1.70;99.90
25250;DHT22;13201;51.148;13.738;2024-01-15T03:54:02;1.60;99.90
25250;DHT22;13201;51.148;13.738;2024-01-15T03:56:28;1.60;99.90
25250;DHT22;13201;51.148;13.738;2024-01-15T03:58:54;1.60;99.90
25250;DHT22;13201;51.148;13.738;2024-01-15T04:01:19;1.60;99.90
25250;DHT22;13201;51.148;13.738;2024-01-15T04:03:45;1.60;99.90
25250;DHT22;13201;51.148;13.738;2024-01-15T04:06:11;1.60;99.90
25250;DHT22;13201;51.148;13.738;2024-01-15T04:08:36;1.50;99.90
25250;DHT22;13201;51.148;13.738;2024-01-15T04:11:02;1.50;99.90
25250;DHT22;13201;51.148;13.738;2024-01-15T04:13:28;1.50;99.90
25250;DHT22;13201;51.148;13.738;2024-01-15T04:15:54;1.40;99.90
25250;DHT22;13201;51.148;13.738;2024-01-15T04:18:20;1.40;99.90
25250;DHT22;13201;51.148;13.738;2024-01-15T04:20:45;1.50;99.90
25250;DHT22;13201;51.148;13.738;2024-01-15T04:23:11;1.40;99.90
25250;DHT22;13201;51.148;13.738;2024-01-15T04:25:36;1.40;99.90
25250;DHT22;13201;51.148;13.738;2024-01-15T04:28:02;1.40;99.90
25250;DHT22;13201;51.148;13.738;2024-01-15T04:30:28;1.40;99.90
25250;DHT22;13201;51.148;13.738;2024-01-15T04:32:54;1.40;99.90
25250;DHT22;13201;51.148;13.738;2024-01-15T04:35:19;1.40;99.90
25250;DHT22;13201;51.148;13.738;2024-01-15T04:37:45;1.40;99.90
25250;DHT22;13201;51.148;13.738;2024-01-15T04:40:11;1.40;99.90
25250;DHT22;13201;51.148;13.738;2024-01-15T04:42:36;1.30;99.90
25250;DHT22;13201;51.148;13.738;2024-01-15T04:45:02;1.40;99.90
25250;DHT22;13201;51.148;13.738;2024-01-15T04:47:29;1.40;99.90
25250;DHT22;13201;51.148;13.738;2024-01-15T04:49:54;1.30;99.90
25250;DHT22;13201;51.148;13.738;2024-01-15T04:52:20;1.30;99.90
25250;DHT22;13201;51.148;13.738;2024-01-15T04:54:46;1.40;99.90
25250;DHT22;13201;51.148;13.738;2024-01-15T04:57:11;1.30;99.90
25250;DHT22;13201;51.148;13.738;2024-01-15T04:59:37;1.30;99.90
25250;DHT22;13201;51.148;13.738;2024-01-15T05:02:03;1.30;99.90
25250;DHT22;13201;51.148;13.738;2024-01-15T05:04:28;1.20;99.90
25250;DHT22;13201;51.148;13.738;2024-01-15T05:06:55;1.20;99.90
25250;DHT22;13201;51.148;13.738;2024-01-15T05:09:21;1.10;99.90
25250;DHT22;13201;51.148;13.738;2024-01-15T05:11:46;1.10;99.90
25250;DHT22;13201;51.148;13.738;2024-01-15T05:14:12;1.00;99.90
25250;DHT22;13201;51.148;13.738;2024-01-15T05:16:39;1.10;99.90
25250;DHT22;13201;51.148;13.738;2024-01-15T05:19:04;1.00;99.90
25250;DHT22;13201;51.148;13.738;2024-01-15T05:21:30;1.10;99.90
25250;DHT22;13201;51.148;13.738;2024-01-15T05:23:56;1.10;99.90
25250;DHT22;13201;51.148;13.738;2024-01-15T05:26:21;1.10;99.90
25250;DHT22;13201;51.148;13.738;2024-01-15T05:28:47;1.10;99.90
25250;DHT22;13201;51.148;13.738;2024-01-15T05:31:13;1.10;99.90
25250;DHT22;13201;51.148;13.738;2024-01-15T05:33:38;1.20;99.90
25250;DHT22;13201;51.148;13.738;2024-01-15T05:36:05;1.10;99.90
25250;DHT22;13201;51.148;13.738;2024-01-15T05:38:30;1.20;99.90
25250;DHT22;13201;51.148;13.738;2024-01-15T05:40:56;1.10;99.90
25250;DHT22;13201;51.148;13.738;2024-01-15T05:43:22;1.20;99.90
25250;DHT22;13201;51.148;13.738;2024-01-15T05:45:47;1.10;99.90
25250;DHT22;13201;51.148;13.738;2024-01-15T05:48:13;1.10;99.90
25250;DHT22;13201;51.148;13.738;2024-01-15T05:50:39;1.10;99.90
25250;DHT22;13201;51.148;13.738;2024-01-15T05:53:04;1.20;99.90
25250;DHT22;13201;51.148;13.738;2024-01-15T05:55:30;1.20;99.90
25250;DHT22;13201;51.148;13.738;2024-01-15T05:57:56;1.20;99.90
25250;DHT22;13201;51.148;13.738;2024-01-15T06:00:22;1.30;99.90
25250;DHT22;13201;51.148;13.738;2024-01-15T06:02:47;1.20;99.90
25250;DHT22;13201;51.148;13.738;2024-01-15T06:05:13;1.30;99.90
25250;DHT22;13201;51.148;13.738;2024-01-15T06:07:39;1.30;99.90
25250;DHT22;13201;51.148;13.738;2024-01-15T06:10:05;1.20;99.90
25250;DHT22;13201;51.148;13.738;2024-01-15T06:12:31;1.20;99.90
25250;DHT22;13201;51.148;13.738;2024-01-15T06:14:57;1.20;99.90
25250;DHT22;13201;51.148;13.738;2024-01-15T06:17:23;1.20;99.90
25250;DHT22;13201;51.148;13.738;2024-01-15T06:19:49;1.20;99.90
25250;DHT22;13201;51.148;13.738;2024-01-15T06:22:14;1.20;99.90
25250;DHT22;13201;51.148;13.738;2024-01-15T06:24:40;1.20;99.90
25250;DHT22;13201;51.148;13.738;2024-01-15T06:27:06;1.20;99.90
25250;DHT22;13201;51.148;13.738;2024-01-15T06:29:32;1.20;99.90
25250;DHT22;13201;51.148;13.738;2024-01-15T06:31:57;1.20;99.90
25250;DHT22;13201;51.148;13.738;2024-01-15T06:34:23;1.20;99.90
25250;DHT22;13201;51.148;13.738;2024-01-15T06:36:49;1.20;99.90
25250;DHT22;13201;51.148;13.738;2024-01-15T06:39:14;1.20;99.90
25250;DHT22;13201;51.148;13.738;2024-01-15T06:41:40;1.20;99.90
25250;DHT22;13201;51.148;13.738;2024-01-15T06:44:12;1.20;99.90
25250;DHT22;13201;51.148;13.738;2024-01-15T06:46:45;1.20;99.90
25250;DHT22;13201;51.148;13.738;2024-01-15T06:49:11;1.20;99.90
25250;DHT22;13201;51.148;13.738;2024-01-15T06:51:37;1.20;99.90
25250;DHT22;13201;51.148;13.738;2024-01-15T06:54:02;1.20;99.90
25250;DHT22;13201;51.148;13.738;2024-01-15T06:56:28;1.20;99.90
25250;DHT22;13201;51.148;13.738;2024-01-15T06:58:54;1.20;99.90
25250;DHT22;13201;51.148;13.738;2024-01-15T07:01:19;1.20;99.90
25250;DHT22;13201;51.148;13.738;2024-01-15T07:03:45;1.20;99.90
25250;DHT22;13201;51.148;13.738;2024-01-15T07:06:11;1.20;99.90
25250;DHT22;13201;51.148;13.738;2024-01-15T07:08:38;1.20;99.90
25250;DHT22;13201;51.148;13.738;2024-01-15T07:11:04;1.30;99.90
25250;DHT22;13201;51.148;13.738;2024-01-15T07:13:30;1.30;99.90
25250;DHT22;13201;51.148;13.738;2024-01-15T07:15:56;1.30;99.90
25250;DHT22;13201;51.148;13.738;2024-01-15T07:18:21;1.40;99.90
25250;DHT22;13201;51.148;13.738;2024-01-15T07:20:47;1.30;99.90
25250;DHT22;13201;51.148;13.738;2024-01-15T07:23:13;1.30;99.90
25250;DHT22;13201;51.148;13.738;2024-01-15T07:25:38;1.30;99.90
25250;DHT22;13201;51.148;13.738;2024-01-15T07:28:04;1.30;99.90
25250;DHT22;13201;51.148;13.738;2024-01-15T07:30:30;1.20;99.90
25250;DHT22;13201;51.148;13.738;2024-01-15T07:32:56;1.20;99.90
25250;DHT22;13201;51.148;13.738;2024-01-15T07:35:22;1.00;99.90
25250;DHT22;13201;51.148;13.738;2024-01-15T07:37:47;1.10;99.90
25250;DHT22;13201;51.148;13.738;2024-01-15T07:40:13;1.10;99.90
25250;DHT22;13201;51.148;13.738;2024-01-15T07:42:39;1.10;99.90
25250;DHT22;13201;51.148;13.738;2024-01-15T07:45:05;1.10;99.90
25250;DHT22;13201;51.148;13.738;2024-01-15T07:47:31;1.10;99.90
25250;DHT22;13201;51.148;13.738;2024-01-15T07:49:57;1.10;99.90
25250;DHT22;13201;51.148;13.738;2024-01-15T07:52:23;1.20;99.90
25250;DHT22;13201;51.148;13.738;2024-01-15T07:54:48;1.20;99.90
25250;DHT22;13201;51.148;13.738;2024-01-15T07:57:14;1.20;99.90
25250;DHT22;13201;51.148;13.738;2024-01-15T07:59:39;1.20;99.90
25250;DHT22;13201;51.148;13.738;2024-01-15T08:02:05;1.20;99.90
25250;DHT22;13201;51.148;13.738;2024-01-15T08:04:31;1.20;99.90
25250;DHT22;13201;51.148;13.738;2024-01-15T08:06:57;1.20;99.90
25250;DHT22;13201;51.148;13.738;2024-01-15T08:09:23;1.20;99.90
25250;DHT22;13201;51.148;13.738;2024-01-15T08:11:49;1.20;99.90
25250;DHT22;13201;51.148;13.738;2024-01-15T08:14:15;1.20;99.90
25250;DHT22;13201;51.148;13.738;2024-01-15T08:16:40;1.20;99.90
25250;DHT22;13201;51.148;13.738;2024-01-15T08:19:06;1.20;99.90
25250;DHT22;13201;51.148;13.738;2024-01-15T08:21:32;1.30;99.90
25250;DHT22;13201;51.148;13.738;2024-01-15T08:23:59;1.30;99.90
25250;DHT22;13201;51.148;13.738;2024-01-15T08:26:25;1.20;99.90
25250;DHT22;13201;51.148;13.738;2024-01-15T08:28:51;1.20;99.90
25250;DHT22;13201;51.148;13.738;2024-01-15T08:31:16;1.20;99.90
25250;DHT22;13201;51.148;13.738;2024-01-15T08:33:42;1.30;99.90
25250;DHT22;13201;51.148;13.738;2024-01-15T08:36:09;1.20;99.90
25250;DHT22;13201;51.148;13.738;2024-01-15T08:38:35;1.30;99.90
25250;DHT22;13201;51.148;13.738;2024-01-15T08:41:01;1.30;99.90
25250;DHT22;13201;51.148;13.738;2024-01-15T08:43:27;1.40;99.90
25250;DHT22;13201;51.148;13.738;2024-01-15T08:45:53;1.30;99.90
25250;DHT22;13201;51.148;13.738;2024-01-15T08:48:19;1.30;99.90
25250;DHT22;13201;51.148;13.738;2024-01-15T08:50:45;1.30;99.90
25250;DHT22;13201;51.148;13.738;2024-01-15T08:53:14;1.30;99.90
25250;DHT22;13201;51.148;13.738;2024-01-15T08:55:40;1.30;99.90
25250;DHT22;13201;51.148;13.738;2024-01-15T08:58:08;1.40;99.90
25250;DHT22;13201;51.148;13.738;2024-01-15T09:00:34;1.30;99.90
25250;DHT22;13201;51.148;13.738;2024-01-15T09:02:59;1.40;99.90
25250;DHT22;13201;51.148;13.738;2024-01-15T09:05:25;1.30;99.90
25250;DHT22;13201;51.148;13.738;2024-01-15T09:07:51;1.30;99.90
25250;DHT22;13201;51.148;13.738;2024-01-15T09:10:18;1.30;99.90
25250;DHT22;13201;51.148;13.738;2024-01-15T09:12:43;1.40;99.90
25250;DHT22;13201;51.148;13.738;2024-01-15T09:15:10;1.40;99.90
25250;DHT22;13201;51.148;13.738;2024-01-15T09:17:35;1.30;99.90
25250;DHT22;13201;51.148;13.738;2024-01-15T09:20:01;1.40;99.90
25250;DHT22;13201;51.148;13.738;2024-01-15T09:22:27;1.40;99.90
25250;DHT22;13201;51.148;13.738;2024-01-15T09:24:53;1.30;99.90
25250;DHT22;13201;51.148;13.738;2024-01-15T09:27:18;1.40;99.90
25250;DHT22;13201;51.148;13.738;2024-01-15T09:29:44;1.40;99.90
25250;DHT22;13201;51.148;13.738;2024-01-15T09:32:12;1.50;99.90
25250;DHT22;13201;51.148;13.738;2024-01-15T09:34:38;1.60;99.90
25250;DHT22;13201;51.148;13.738;2024-01-15T09:37:04;1.80;99.90
25250;DHT22;13201;51.148;13.738;2024-01-15T09:39:30;1.90;99.90
25250;DHT22;13201;51.148;13.738;2024-01-15T09:41:59;1.80;99.90
25250;DHT22;13201;51.148;13.738;2024-01-15T09:44:26;1.80;99.90
25250;DHT22;13201;51.148;13.738;2024-01-15T09:46:53;1.80;99.90
25250;DHT22;13201;51.148;13.738;2024-01-15T09:49:19;1.90;99.90
25250;DHT22;13201;51.148;13.738;2024-01-15T09:51:45;1.80;99.90
25250;DHT22;13201;51.148;13.738;2024-01-15T09:54:12;1.90;99.90
25250;DHT22;13201;51.148;13.738;2024-01-15T09:56:46;1.90;99.90
25250;DHT22;13201;51.148;13.738;2024-01-15T09:59:18;1.90;99.90
25250;DHT22;13201;51.148;13.738;2024-01-15T10:01:44;2.00;99.90
25250;DHT22;13201;51.148;13.738;2024-01-15T10:04:11;2.00;99.90
25250;DHT22;13201;51.148;13.738;2024-01-15T10:06:38;2.00;99.90
25250;DHT22;13201;51.148;13.738;2024-01-15T10:09:05;2.10;99.90
25250;DHT22;13201;51.148;13.738;2024-01-15T10:11:33;2.00;99.90
25250;DHT22;13201;51.148;13.738;2024-01-15T10:13:59;2.00;99.90
25250;DHT22;13201;51.148;13.738;2024-01-15T10:16:25;2.10;99.90
25250;DHT22;13201;51.148;13.738;2024-01-15T10:18:51;2.00;99.90
25250;DHT22;13201;51.148;13.738;2024-01-15T10:21:17;2.10;99.90
25250;DHT22;13201;51.148;13.738;2024-01-15T10:23:43;2.20;99.90
25250;DHT22;13201;51.148;13.738;2024-01-15T10:26:09;2.20;99.90
25250;DHT22;13201;51.148;13.738;2024-01-15T10:28:37;2.40;99.90
25250;DHT22;13201;51.148;13.738;2024-01-15T10:31:03;2.20;99.90
25250;DHT22;13201;51.148;13.738;2024-01-15T10:33:30;2.20;99.90
25250;DHT22;13201;51.148;13.738;2024-01-15T10:35:58;2.30;99.90
25250;DHT22;13201;51.148;13.738;2024-01-15T10:38:25;2.20;99.90
25250;DHT22;13201;51.148;13.738;2024-01-15T10:40:55;2.20;99.90
25250;DHT22;13201;51.148;13.738;2024-01-15T10:43:21;2.10;99.90
25250;DHT22;13201;51.148;13.738;2024-01-15T10:45:51;2.20;99.90
25250;DHT22;13201;51.148;13.738;2024-01-15T10:48:18;2.30;99.90
25250;DHT22;13201;51.148;13.738;2024-01-15T10:50:45;2.30;99.90
25250;DHT22;13201;51.148;13.738;2024-01-15T10:53:14;2.20;99.90
25250;DHT22;13201;51.148;13.738;2024-01-15T10:55:41;2.10;99.90
25250;DHT22;13201;51.148;13.738;2024-01-15T10:58:08;2.20;99.90
25250;DHT22;13201;51.148;13.738;2024-01-15T11:00:35;2.10;99.90
25250;DHT22;13201;51.148;13.738;2024-01-15T11:03:03;2.10;99.90
25250;DHT22;13201;51.148;13.738;2024-01-15T11:05:37;2.10;99.90
25250;DHT22;13201;51.148;13.738;2024-01-15T11:08:06;2.10;99.90
25250;DHT22;13201;51.148;13.738;2024-01-15T11:15:58;2.10;99.90
25250;DHT22;13201;51.148;13.738;2024-01-15T11:18:28;2.20;99.90
25250;DHT22;13201;51.148;13.738;2024-01-15T11:29:00;2.20;99.90
25250;DHT22;13201;51.148;13.738;2024-01-15T11:34:05;2.10;99.90
25250;DHT22;13201;51.148;13.738;2024-01-15T11:41:56;2.40;99.90
25250;DHT22;13201;51.148;13.738;2024-01-15T11:44:22;2.40;99.90
25250;DHT22;13201;51.148;13.738;2024-01-15T11:47:07;2.40;99.90
25250;DHT22;13201;51.148;13.738;2024-01-15T11:52:19;2.50;99.90
25250;DHT22;13201;51.148;13.738;2024-01-15T11:54:57;2.50;99.90
25250;DHT22;13201;51.148;13.738;2024-01-15T12:00:10;2.80;99.90
25250;DHT22;13201;51.148;13.738;2024-01-15T12:02:38;2.70;99.90
25250;DHT22;13201;51.148;13.738;2024-01-15T12:05:04;2.60;99.90
25250;DHT22;13201;51.148;13.738;2024-01-15T12:07:30;2.70;99.90
25250;DHT22;13201;51.148;13.738;2024-01-15T12:09:56;2.60;99.90
25250;DHT22;13201;51.148;13.738;2024-01-15T12:12:37;2.60;99.90
25250;DHT22;13201;51.148;13.738;2024-01-15T12:15:05;2.50;99.90
25250;DHT22;13201;51.148;13.738;2024-01-15T12:17:31;2.60;99.90
25250;DHT22;13201;51.148;13.738;2024-01-15T12:19:57;2.60;99.90
25250;DHT22;13201;51.148;13.738;2024-01-15T12:22:22;2.50;99.90
25250;DHT22;13201;51.148;13.738;2024-01-15T12:24:48;2.50;99.90
25250;DHT22;13201;51.148;13.738;2024-01-15T12:27:14;2.50;99.90
25250;DHT22;13201;51.148;13.738;2024-01-15T12:29:40;2.40;99.90
25250;DHT22;13201;51.148;13.738;2024-01-15T12:32:05;2.40;99.90
25250;DHT22;13201;51.148;13.738;2024-01-15T12:34:33;2.40;99.90
25250;DHT22;13201;51.148;13.738;2024-01-15T12:36:59;2.40;99.90
25250;DHT22;13201;51.148;13.738;2024-01-15T12:39:25;2.40;99.90
25250;DHT22;13201;51.148;13.738;2024-01-15T12:41:51;2.30;99.90
25250;DHT22;13201;51.148;13.738;2024-01-15T12:44:17;2.40;99.90
25250;DHT22;13201;51.148;13.738;2024-01-15T12:46:43;2.30;99.90
25250;DHT22;13201;51.148;13.738;2024-01-15T12:49:08;2.40;99.90
25250;DHT22;13201;51.148;13.738;2024-01-15T12:51:34;2.50;99.90
25250;DHT22;13201;51.148;13.738;2024-01-15T12:54:00;2.50;99.90
25250;DHT22;13201;51.148;13.738;2024-01-15T12:56:26;2.50;99.90
25250;DHT22;13201;51.148;13.738;2024-01-15T12:58:51;2.60;99.90
25250;DHT22;13201;51.148;13.738;2024-01-15T13:01:17;2.60;99.90
25250;DHT22;13201;51.148;13.738;2024-01-15T13:03:43;2.60;99.90
25250;DHT22;13201;51.148;13.738;2024-01-15T13:06:08;2.50;99.90
25250;DHT22;13201;51.148;13.738;2024-01-15T13:08:34;2.50;99.90
25250;DHT22;13201;51.148;13.738;2024-01-15T13:11:00;2.60;99.90
25250;DHT22;13201;51.148;13.738;2024-01-15T13:13:25;2.50;99.90
25250;DHT22;13201;51.148;13.738;2024-01-15T13:15:51;2.60;99.90
25250;DHT22;13201;51.148;13.738;2024-01-15T13:18:17;2.50;99.90
25250;DHT22;13201;51.148;13.738;2024-01-15T13:20:44;2.60;99.90
25250;DHT22;13201;51.148;13.738;2024-01-15T13:23:11;2.50;99.90
25250;DHT22;13201;51.148;13.738;2024-01-15T13:25:37;2.50;99.90
25250;DHT22;13201;51.148;13.738;2024-01-15T13:28:04;2.50;99.90
25250;DHT22;13201;51.148;13.738;2024-01-15T13:30:30;2.40;99.90
25250;DHT22;13201;51.148;13.738;2024-01-15T13:32:56;2.50;99.90
25250;DHT22;13201;51.148;13.738;2024-01-15T13:35:23;2.50;99.90
25250;DHT22;13201;51.148;13.738;2024-01-15T13:37:49;2.60;99.90
25250;DHT22;13201;51.148;13.738;2024-01-15T13:40:14;2.50;99.90
25250;DHT22;13201;51.148;13.738;2024-01-15T13:42:46;2.40;99.90
25250;DHT22;13201;51.148;13.738;2024-01-15T13:45:12;2.40;99.90
25250;DHT22;13201;51.148;13.738;2024-01-15T13:47:40;2.30;99.90
25250;DHT22;13201;51.148;13.738;2024-01-15T13:50:07;2.40;99.90
25250;DHT22;13201;51.148;13.738;2024-01-15T13:52:34;2.30;99.90
25250;DHT22;13201;51.148;13.738;2024-01-15T13:54:59;2.10;99.90
25250;DHT22;13201;51.148;13.738;2024-01-15T13:57:25;2.00;99.90
25250;DHT22;13201;51.148;13.738;2024-01-15T13:59:50;2.10;99.90
25250;DHT22;13201;51.148;13.738;2024-01-15T14:02:16;1.80;99.90
25250;DHT22;13201;51.148;13.738;2024-01-15T14:04:42;1.60;99.90
25250;DHT22;13201;51.148;13.738;2024-01-15T14:07:08;1.70;99.90
25250;DHT22;13201;51.148;13.738;2024-01-15T14:09:33;1.60;99.90
25250;DHT22;13201;51.148;13.738;2024-01-15T14:11:59;1.50;99.90
25250;DHT22;13201;51.148;13.738;2024-01-15T14:14:25;1.50;99.90
25250;DHT22;13201;51.148;13.738;2024-01-15T14:16:51;1.50;99.90
25250;DHT22;13201;51.148;13.738;2024-01-15T14:19:16;1.50;99.90
25250;DHT22;13201;51.148;13.738;2024-01-15T14:21:42;1.50;99.90
25250;DHT22;13201;51.148;13.738;2024-01-15T14:24:07;1.60;99.90
25250;DHT22;13201;51.148;13.738;2024-01-15T14:26:34;1.50;99.90
25250;DHT22;13201;51.148;13.738;2024-01-15T14:29:00;1.50;99.90
25250;DHT22;13201;51.148;13.738;2024-01-15T14:31:25;1.40;99.90
25250;DHT22;13201;51.148;13.738;2024-01-15T14:33:55;1.40;99.90
25250;DHT22;13201;51.148;13.738;2024-01-15T14:36:20;1.50;99.90
25250;DHT22;13201;51.148;13.738;2024-01-15T14:38:46;1.50;99.90
25250;DHT22;13201;51.148;13.738;2024-01-15T14:41:12;1.50;99.90
25250;DHT22;13201;51.148;13.738;2024-01-15T14:43:38;1.50;99.90
25250;DHT22;13201;51.148;13.738;2024-01-15T14:46:04;1.40;99.90
25250;DHT22;13201;51.148;13.738;2024-01-15T14:48:29;1.40;99.90
25250;DHT22;13201;51.148;13.738;2024-01-15T14:50:55;1.30;99.90
25250;DHT22;13201;51.148;13.738;2024-01-15T14:53:21;1.10;99.90
25250;DHT22;13201;51.148;13.738;2024-01-15T14:55:47;0.90;99.90
25250;DHT22;13201;51.148;13.738;2024-01-15T14:58:12;0.90;99.90
25250;DHT22;13201;51.148;13.738;2024-01-15T15:00:38;1.00;99.90
25250;DHT22;13201;51.148;13.738;2024-01-15T15:03:04;1.00;99.90
25250;DHT22;13201;51.148;13.738;2024-01-15T15:05:29;1.00;99.90
25250;DHT22;13201;51.148;13.738;2024-01-15T15:07:55;1.00;99.90
25250;DHT22;13201;51.148;13.738;2024-01-15T15:10:21;1.00;99.90
25250;DHT22;13201;51.148;13.738;2024-01-15T15:12:47;0.90;99.90
25250;DHT22;13201;51.148;13.738;2024-01-15T15:15:13;0.90;99.90
25250;DHT22;13201;51.148;13.738;2024-01-15T15:17:39;0.90;99.90
25250;DHT22;13201;51.148;13.738;2024-01-15T15:20:08;1.00;99.90
25250;DHT22;13201;51.148;13.738;2024-01-15T15:22:34;0.90;99.90
25250;DHT22;13201;51.148;13.738;2024-01-15T15:25:00;0.90;99.90
25250;DHT22;13201;51.148;13.738;2024-01-15T15:27:25;1.00;99.90
25250;DHT22;13201;51.148;13.738;2024-01-15T15:29:53;1.00;99.90
25250;DHT22;13201;51.148;13.738;2024-01-15T15:32:19;1.00;99.90
25250;DHT22;13201;51.148;13.738;2024-01-15T15:34:45;1.00;99.90
25250;DHT22;13201;51.148;13.738;2024-01-15T15:37:11;1.10;99.90
25250;DHT22;13201;51.148;13.738;2024-01-15T15:39:37;1.10;99.90
25250;DHT22;13201;51.148;13.738;2024-01-15T15:42:03;1.10;99.90
25250;DHT22;13201;51.148;13.738;2024-01-15T15:44:29;1.10;99.90
25250;DHT22;13201;51.148;13.738;2024-01-15T15:46:54;1.10;99.90
25250;DHT22;13201;51.148;13.738;2024-01-15T15:49:20;1.20;99.90
25250;DHT22;13201;51.148;13.738;2024-01-15T15:51:46;1.10;99.90
25250;DHT22;13201;51.148;13.738;2024-01-15T15:54:11;1.20;99.90
25250;DHT22;13201;51.148;13.738;2024-01-15T15:56:37;1.10;99.90
25250;DHT22;13201;51.148;13.738;2024-01-15T15:59:07;1.10;99.90
25250;DHT22;13201;51.148;13.738;2024-01-15T16:01:35;1.20;99.90
25250;DHT22;13201;51.148;13.738;2024-01-15T16:04:00;1.20;99.90
25250;DHT22;13201;51.148;13.738;2024-01-15T16:06:26;1.30;99.90
25250;DHT22;13201;51.148;13.738;2024-01-15T16:08:52;1.30;99.90
25250;DHT22;13201;51.148;13.738;2024-01-15T16:11:18;1.40;99.90
25250;DHT22;13201;51.148;13.738;2024-01-15T16:13:43;1.50;99.90
25250;DHT22;13201;51.148;13.738;2024-01-15T16:16:09;1.40;99.90